sensor_id;sensor_type;location;lat;lon;timestamp;pressure;altitude;pressure_sealevel;temperature;humidity
36092;BME280;22147;52.388;13.390;2023-01-25T00:02:15;103256.34;;;-0.17;100.00
36092;BME280;22147;52.388;13.390;2023-01-25T00:04:45;103256.13;;;-0.15;100.00
36092;BME280;22147;52.388;13.390;2023-01-25T00:07:16;103238.31;;;-0.11;100.00
36092;BME280;22147;52.388;13.390;2023-01-25T00:09:46;103239.56;;;-0.14;100.00
36092;BME280;22147;52.388;13.390;2023-01-25T00:12:16;103226.31;;;-0.17;100.00
36092;BME280;22147;52.388;13.390;2023-01-25T00:14:46;103223.75;;;-0.18;100.00
36092;BME280;22147;52.388;13.390;2023-01-25T00:17:16;103223.94;;;-0.20;100.00
36092;BME280;22147;52.388;13.390;2023-01-25T00:19:46;103217.66;;;-0.21;100.00
36092;BME280;22147;52.388;13.390;2023-01-25T00:22:16;103218.50;;;-0.20;100.00
36092;BME280;22147;52.388;13.390;2023-01-25T00:24:46;103217.00;;;-0.23;100.00
36092;BME280;22147;52.388;13.390;2023-01-25T00:27:16;103206.72;;;-0.21;100.00
36092;BME280;22147;52.388;13.390;2023-01-25T00:29:47;103204.66;;;-0.18;100.00
36092;BME280;22147;52.388;13.390;2023-01-25T00:34:51;103185.13;;;-0.15;100.00
36092;BME280;22147;52.388;13.390;2023-01-25T00:37:36;103176.91;;;-0.15;100.00
36092;BME280;22147;52.388;13.390;2023-01-25T00:40:17;103168.28;;;-0.19;100.00
36092;BME280;22147;52.388;13.390;2023-01-25T00:42:47;103159.94;;;-0.11;100.00
36092;BME280;22147;52.388;13.390;2023-01-25T00:45:18;103140.81;;;-0.11;100.00
36092;BME280;22147;52.388;13.390;2023-01-25T00:47:48;103137.06;;;-0.10;100.00
36092;BME280;22147;52.388;13.390;2023-01-25T00:50:19;103144.41;;;-0.10;100.00
36092;BME280;22147;52.388;13.390;2023-01-25T00:52:49;103142.72;;;-0.11;100.00
36092;BME280;22147;52.388;13.390;2023-01-25T00:55:19;103145.56;;;-0.19;100.00
36092;BME280;22147;52.388;13.390;2023-01-25T00:57:49;103141.16;;;-0.21;100.00
36092;BME280;22147;52.388;13.390;2023-01-25T01:00:19;103139.09;;;-0.18;100.00
36092;BME280;22147;52.388;13.390;2023-01-25T01:02:49;103128.41;;;-0.13;100.00
36092;BME280;22147;52.388;13.390;2023-01-25T01:05:19;103124.00;;;-0.14;100.00
36092;BME280;22147;52.388;13.390;2023-01-25T01:07:50;103123.28;;;-0.23;100.00
36092;BME280;22147;52.388;13.390;2023-01-25T01:10:20;103127.50;;;-0.21;100.00
36092;BME280;22147;52.388;13.390;2023-01-25T01:12:50;103134.66;;;-0.19;100.00
36092;BME280;22147;52.388;13.390;2023-01-25T01:15:20;103132.78;;;-0.19;100.00
36092;BME280;22147;52.388;13.390;2023-01-25T01:17:50;103137.19;;;-0.18;100.00
36092;BME280;22147;52.388;13.390;2023-01-25T01:20:20;103136.22;;;-0.10;100.00
36092;BME280;22147;52.388;13.390;2023-01-25T01:22:51;103144.66;;;-0.05;100.00
36092;BME280;22147;52.388;13.390;2023-01-25T01:25:24;103134.50;;;-0.11;100.00
36092;BME280;22147;52.388;13.390;2023-01-25T01:27:54;103143.94;;;-0.14;100.00
36092;BME280;22147;52.388;13.390;2023-01-25T01:30:24;103136.59;;;-0.13;100.00
36092;BME280;22147;52.388;13.390;2023-01-25T01:32:54;103128.41;;;-0.13;100.00
36092;BME280;22147;52.388;13.390;2023-01-25T01:35:24;103129.22;;;-0.13;100.00
36092;BME280;22147;52.388;13.390;2023-01-25T01:37:54;103135.75;;;-0.14;100.00
36092;BME280;22147;52.388;13.390;2023-01-25T01:40:25;103131.13;;;-0.13;100.00
36092;BME280;22147;52.388;13.390;2023-01-25T01:43:06;103127.56;;;-0.14;100.00
36092;BME280;22147;52.388;13.390;2023-01-25T01:45:57;103134.06;;;-0.15;100.00
36092;BME280;22147;52.388;13.390;2023-01-25T01:49:00;103138.50;;;-0.14;100.00
36092;BME280;22147;52.388;13.390;2023-01-25T01:54:56;103134.50;;;-0.11;100.00
36092;BME280;22147;52.388;13.390;2023-01-25T01:57:54;103122.34;;;-0.09;100.00
36092;BME280;22147;52.388;13.390;2023-01-25T02:00:36;103126.78;;;-0.08;100.00
36092;BME280;22147;52.388;13.390;2023-01-25T02:03:09;103121.69;;;-0.11;100.00
36092;BME280;22147;52.388;13.390;2023-01-25T02:05:53;103120.66;;;-0.10;100.00
36092;BME280;22147;52.388;13.390;2023-01-25T02:08:33;103117.81;;;0.05;100.00
36092;BME280;22147;52.388;13.390;2023-01-25T02:11:08;103116.34;;;0.03;100.00
36092;BME280;22147;52.388;13.390;2023-01-25T02:13:38;103127.28;;;0.03;100.00
36092;BME280;22147;52.388;13.390;2023-01-25T02:16:21;103121.59;;;0.04;100.00
36092;BME280;22147;52.388;13.390;2023-01-25T02:18:58;103122.47;;;0.05;100.00
36092;BME280;22147;52.388;13.390;2023-01-25T02:21:42;103122.22;;;0.06;100.00
36092;BME280;22147;52.388;13.390;2023-01-25T02:24:32;103117.19;;;0.03;100.00
36092;BME280;22147;52.388;13.390;2023-01-25T02:27:04;103110.66;;;0.04;100.00
36092;BME280;22147;52.388;13.390;2023-01-25T02:29:35;103106.44;;;0.02;100.00
36092;BME280;22147;52.388;13.390;2023-01-25T02:32:06;103105.41;;;0.03;100.00
36092;BME280;22147;52.388;13.390;2023-01-25T02:34:34;103109.63;;;0.05;100.00
36092;BME280;22147;52.388;13.390;2023-01-25T02:37:05;103105.84;;;0.06;100.00
36092;BME280;22147;52.388;13.390;2023-01-25T02:39:34;103114.69;;;0.08;100.00
36092;BME280;22147;52.388;13.390;2023-01-25T02:42:06;103106.47;;;0.08;100.00
36092;BME280;22147;52.388;13.390;2023-01-25T02:44:40;103104.81;;;0.07;100.00
36092;BME280;22147;52.388;13.390;2023-01-25T02:47:10;103100.59;;;0.05;100.00
36092;BME280;22147;52.388;13.390;2023-01-25T02:49:40;103099.53;;;0.06;100.00
36092;BME280;22147;52.388;13.390;2023-01-25T02:52:10;103088.59;;;0.06;100.00
36092;BME280;22147;52.388;13.390;2023-01-25T02:54:40;103094.06;;;0.06;100.00
36092;BME280;22147;52.388;13.390;2023-01-25T02:57:09;103087.34;;;0.08;100.00
36092;BME280;22147;52.388;13.390;2023-01-25T02:59:39;103082.53;;;0.10;100.00
36092;BME280;22147;52.388;13.390;2023-01-25T03:02:09;103089.91;;;0.10;100.00
36092;BME280;22147;52.388;13.390;2023-01-25T03:04:39;103083.41;;;0.11;100.00
36092;BME280;22147;52.388;13.390;2023-01-25T03:07:09;103081.69;;;0.10;100.00
36092;BME280;22147;52.388;13.390;2023-01-25T03:09:39;103078.31;;;0.08;100.00
36092;BME280;22147;52.388;13.390;2023-01-25T03:12:10;103081.00;;;0.01;100.00
36092;BME280;22147;52.388;13.390;2023-01-25T03:14:43;103071.16;;;0.00;100.00
36092;BME280;22147;52.388;13.390;2023-01-25T03:17:13;103078.94;;;0.03;100.00
36092;BME280;22147;52.388;13.390;2023-01-25T03:19:43;103074.31;;;0.04;100.00
36092;BME280;22147;52.388;13.390;2023-01-25T03:22:13;103069.25;;;0.01;100.00
36092;BME280;22147;52.388;13.390;2023-01-25T03:24:42;103075.78;;;0.06;100.00
36092;BME280;22147;52.388;13.390;2023-01-25T03:27:12;103081.97;;;0.15;100.00
36092;BME280;22147;52.388;13.390;2023-01-25T03:29:44;103074.31;;;0.04;100.00
36092;BME280;22147;52.388;13.390;2023-01-25T03:32:14;103072.16;;;-0.01;100.00
36092;BME280;22147;52.388;13.390;2023-01-25T03:34:43;103070.56;;;0.11;100.00
36092;BME280;22147;52.388;13.390;2023-01-25T03:37:11;103066.28;;;0.02;100.00
36092;BME280;22147;52.388;13.390;2023-01-25T03:39:39;103052.59;;;-0.05;100.00
36092;BME280;22147;52.388;13.390;2023-01-25T03:42:10;103049.22;;;-0.07;100.00
36092;BME280;22147;52.388;13.390;2023-01-25T03:44:42;103057.25;;;0.02;100.00
36092;BME280;22147;52.388;13.390;2023-01-25T03:47:12;103061.09;;;0.07;100.00
36092;BME280;22147;52.388;13.390;2023-01-25T03:49:42;103058.50;;;-0.01;100.00
36092;BME280;22147;52.388;13.390;2023-01-25T03:52:12;103059.75;;;-0.04;100.00
36092;BME280;22147;52.388;13.390;2023-01-25T03:54:42;103048.19;;;-0.06;100.00
36092;BME280;22147;52.388;13.390;2023-01-25T03:57:12;103055.38;;;0.02;100.00
36092;BME280;22147;52.388;13.390;2023-01-25T03:59:42;103050.13;;;0.01;100.00
36092;BME280;22147;52.388;13.390;2023-01-25T04:02:12;103047.81;;;0.04;100.00
36092;BME280;22147;52.388;13.390;2023-01-25T04:04:43;103041.09;;;0.00;100.00
36092;BME280;22147;52.388;13.390;2023-01-25T04:07:13;103033.88;;;-0.08;100.00
36092;BME280;22147;52.388;13.390;2023-01-25T04:09:43;103032.97;;;-0.15;100.00
36092;BME280;22147;52.388;13.390;2023-01-25T04:12:16;103026.91;;;-0.17;100.00
36092;BME280;22147;52.388;13.390;2023-01-25T04:14:46;103021.63;;;-0.18;100.00
36092;BME280;22147;52.388;13.390;2023-01-25T04:17:16;103016.59;;;-0.15;100.00
36092;BME280;22147;52.388;13.390;2023-01-25T04:19:46;103017.47;;;-0.14;100.00
36092;BME280;22147;52.388;13.390;2023-01-25T04:22:16;103012.00;;;-0.14;100.00
36092;BME280;22147;52.388;13.390;2023-01-25T04:24:46;103012.19;;;-0.16;100.00
36092;BME280;22147;52.388;13.390;2023-01-25T04:27:16;103010.25;;;-0.22;100.00
36092;BME280;22147;52.388;13.390;2023-01-25T04:29:45;103001.59;;;-0.26;100.00
36092;BME280;22147;52.388;13.390;2023-01-25T04:32:15;102988.59;;;-0.24;100.00
36092;BME280;22147;52.388;13.390;2023-01-25T04:34:45;102999.97;;;-0.20;100.00
36092;BME280;22147;52.388;13.390;2023-01-25T04:37:15;102997.03;;;-0.18;100.00
36092;BME280;22147;52.388;13.390;2023-01-25T04:39:43;102989.88;;;-0.19;100.00
36092;BME280;22147;52.388;13.390;2023-01-25T04:42:13;102988.22;;;-0.21;100.00
36092;BME280;22147;52.388;13.390;2023-01-25T04:44:43;102992.41;;;-0.18;100.00
36092;BME280;22147;52.388;13.390;2023-01-25T04:47:11;102984.88;;;-0.16;100.00
36092;BME280;22147;52.388;13.390;2023-01-25T04:49:40;102984.72;;;-0.08;100.00
36092;BME280;22147;52.388;13.390;2023-01-25T04:52:08;102978.59;;;-0.10;100.00
36092;BME280;22147;52.388;13.390;2023-01-25T04:54:37;102987.19;;;-0.13;100.00
36092;BME280;22147;52.388;13.390;2023-01-25T04:57:05;102977.75;;;-0.10;100.00
36092;BME280;22147;52.388;13.390;2023-01-25T04:59:33;102978.34;;;-0.15;100.00
36092;BME280;22147;52.388;13.390;2023-01-25T05:02:02;102970.78;;;-0.13;100.00
36092;BME280;22147;52.388;13.390;2023-01-25T05:04:30;102972.72;;;-0.07;100.00
36092;BME280;22147;52.388;13.390;2023-01-25T05:06:59;102966.38;;;-0.14;100.00
36092;BME280;22147;52.388;13.390;2023-01-25T05:09:27;102968.91;;;-0.19;100.00
36092;BME280;22147;52.388;13.390;2023-01-25T05:11:56;102970.75;;;-0.19;100.00
36092;BME280;22147;52.388;13.390;2023-01-25T05:14:24;102966.97;;;-0.25;100.00
36092;BME280;22147;52.388;13.390;2023-01-25T05:16:52;102959.41;;;-0.23;100.00
36092;BME280;22147;52.388;13.390;2023-01-25T05:19:23;102958.97;;;-0.27;100.00
36092;BME280;22147;52.388;13.390;2023-01-25T05:21:52;102958.97;;;-0.27;100.00
36092;BME280;22147;52.388;13.390;2023-01-25T05:24:30;102963.97;;;-0.30;100.00
36092;BME280;22147;52.388;13.390;2023-01-25T05:27:02;102961.69;;;-0.27;100.00
36092;BME280;22147;52.388;13.390;2023-01-25T05:29:38;102946.78;;;-0.24;100.00
36092;BME280;22147;52.388;13.390;2023-01-25T05:32:19;102953.94;;;-0.23;100.00
36092;BME280;22147;52.388;13.390;2023-01-25T05:34:50;102957.72;;;-0.24;100.00
36092;BME280;22147;52.388;13.390;2023-01-25T05:37:19;102953.31;;;-0.25;100.00
36092;BME280;22147;52.388;13.390;2023-01-25T05:39:50;102951.81;;;-0.28;100.00
36092;BME280;22147;52.388;13.390;2023-01-25T05:42:20;102954.13;;;-0.31;100.00
36092;BME280;22147;52.388;13.390;2023-01-25T05:44:49;102955.13;;;-0.32;100.00
36092;BME280;22147;52.388;13.390;2023-01-25T05:47:19;102959.34;;;-0.30;100.00
36092;BME280;22147;52.388;13.390;2023-01-25T05:49:49;102952.44;;;-0.26;100.00
36092;BME280;22147;52.388;13.390;2023-01-25T05:52:19;102955.19;;;-0.26;100.00
36092;BME280;22147;52.388;13.390;2023-01-25T05:54:48;102955.81;;;-0.24;100.00
36092;BME280;22147;52.388;13.390;2023-01-25T05:57:17;102959.84;;;-0.19;100.00
36092;BME280;22147;52.388;13.390;2023-01-25T05:59:44;102960.09;;;-0.14;100.00
36092;BME280;22147;52.388;13.390;2023-01-25T06:02:14;102956.72;;;-0.16;100.00
36092;BME280;22147;52.388;13.390;2023-01-25T06:04:44;102961.75;;;-0.13;100.00
36092;BME280;22147;52.388;13.390;2023-01-25T06:07:14;102960.56;;;-0.04;100.00
36092;BME280;22147;52.388;13.390;2023-01-25T06:09:44;102947.09;;;-0.06;100.00
36092;BME280;22147;52.388;13.390;2023-01-25T06:12:20;102944.84;;;0.05;100.00
36092;BME280;22147;52.388;13.390;2023-01-25T06:14:50;102939.53;;;-0.10;100.00
36092;BME280;22147;52.388;13.390;2023-01-25T06:17:18;102938.00;;;-0.13;100.00
36092;BME280;22147;52.388;13.390;2023-01-25T06:19:45;102942.84;;;-0.15;100.00
36092;BME280;22147;52.388;13.390;2023-01-25T06:22:15;102934.88;;;-0.16;100.00
36092;BME280;22147;52.388;13.390;2023-01-25T06:24:44;102936.75;;;-0.17;100.00
36092;BME280;22147;52.388;13.390;2023-01-25T06:27:14;102932.13;;;-0.16;100.00
36092;BME280;22147;52.388;13.390;2023-01-25T06:29:44;102931.53;;;-0.12;100.00
36092;BME280;22147;52.388;13.390;2023-01-25T06:32:14;102927.28;;;-0.21;100.00
36092;BME280;22147;52.388;13.390;2023-01-25T06:34:44;102939.03;;;-0.21;100.00
36092;BME280;22147;52.388;13.390;2023-01-25T06:37:14;102931.06;;;-0.15;100.00
36092;BME280;22147;52.388;13.390;2023-01-25T06:39:44;102936.50;;;-0.22;100.00
36092;BME280;22147;52.388;13.390;2023-01-25T06:42:17;102939.00;;;-0.27;100.00
36092;BME280;22147;52.388;13.390;2023-01-25T06:44:47;102943.69;;;-0.14;100.00
36092;BME280;22147;52.388;13.390;2023-01-25T06:47:14;102941.97;;;-0.22;100.00
36092;BME280;22147;52.388;13.390;2023-01-25T06:49:44;102936.69;;;-0.24;100.00
36092;BME280;22147;52.388;13.390;2023-01-25T06:52:14;102933.13;;;-0.24;100.00
36092;BME280;22147;52.388;13.390;2023-01-25T06:54:44;102928.31;;;-0.22;100.00
36092;BME280;22147;52.388;13.390;2023-01-25T06:57:13;102920.53;;;-0.25;100.00
36092;BME280;22147;52.388;13.390;2023-01-25T06:59:43;102917.38;;;-0.22;100.00
36092;BME280;22147;52.388;13.390;2023-01-25T07:02:15;102912.13;;;-0.24;100.00
36092;BME280;22147;52.388;13.390;2023-01-25T07:09:13;102900.56;;;-0.26;100.00
36092;BME280;22147;52.388;13.390;2023-01-25T07:11:43;102895.31;;;-0.27;100.00
36092;BME280;22147;52.388;13.390;2023-01-25T07:14:13;102901.16;;;-0.30;100.00
36092;BME280;22147;52.388;13.390;2023-01-25T07:16:42;102894.28;;;-0.19;100.00
36092;BME280;22147;52.388;13.390;2023-01-25T07:19:12;102902.69;;;-0.21;100.00
36092;BME280;22147;52.388;13.390;2023-01-25T07:21:42;102893.00;;;-0.24;100.00
36092;BME280;22147;52.388;13.390;2023-01-25T07:24:18;102897.00;;;-0.26;100.00
36092;BME280;22147;52.388;13.390;2023-01-25T07:26:48;102900.97;;;-0.29;100.00
36092;BME280;22147;52.388;13.390;2023-01-25T07:29:18;102894.31;;;-0.13;100.00
36092;BME280;22147;52.388;13.390;2023-01-25T07:31:48;102882.31;;;-0.18;100.00
36092;BME280;22147;52.388;13.390;2023-01-25T07:34:18;102883.34;;;-0.19;100.00
36092;BME280;22147;52.388;13.390;2023-01-25T07:36:48;102883.81;;;-0.09;100.00
36092;BME280;22147;52.388;13.390;2023-01-25T07:39:18;102885.44;;;-0.22;100.00
36092;BME280;22147;52.388;13.390;2023-01-25T07:41:47;102872.84;;;-0.23;100.00
36092;BME280;22147;52.388;13.390;2023-01-25T07:44:17;102879.63;;;-0.12;100.00
36092;BME280;22147;52.388;13.390;2023-01-25T07:46:47;102872.44;;;-0.13;100.00
36092;BME280;22147;52.388;13.390;2023-01-25T07:49:17;102870.75;;;-0.21;100.00
36092;BME280;22147;52.388;13.390;2023-01-25T07:51:47;102868.41;;;-0.24;100.00
36092;BME280;22147;52.388;13.390;2023-01-25T07:54:16;102863.41;;;-0.20;100.00
36092;BME280;22147;52.388;13.390;2023-01-25T07:56:46;102866.50;;;-0.30;100.00
36092;BME280;22147;52.388;13.390;2023-01-25T07:59:17;102867.13;;;-0.34;100.00
36092;BME280;22147;52.388;13.390;2023-01-25T08:01:45;102854.72;;;-0.37;100.00
36092;BME280;22147;52.388;13.390;2023-01-25T08:04:14;102860.38;;;-0.38;100.00
36092;BME280;22147;52.388;13.390;2023-01-25T08:06:42;102856.84;;;-0.26;100.00
36092;BME280;22147;52.388;13.390;2023-01-25T08:09:17;102854.34;;;-0.27;100.00
36092;BME280;22147;52.388;13.390;2023-01-25T08:11:48;102847.22;;;-0.22;100.00
36092;BME280;22147;52.388;13.390;2023-01-25T08:14:18;102855.38;;;-0.28;100.00
36092;BME280;22147;52.388;13.390;2023-01-25T08:16:48;102856.81;;;-0.39;100.00
36092;BME280;22147;52.388;13.390;2023-01-25T08:19:18;102850.47;;;-0.46;100.00
36092;BME280;22147;52.388;13.390;2023-01-25T08:21:49;102840.88;;;-0.35;100.00
36092;BME280;22147;52.388;13.390;2023-01-25T08:24:19;102834.44;;;-0.14;100.00
36092;BME280;22147;52.388;13.390;2023-01-25T08:26:49;102840.06;;;-0.23;100.00
36092;BME280;22147;52.388;13.390;2023-01-25T08:29:19;102835.53;;;0.05;100.00
36092;BME280;22147;52.388;13.390;2023-01-25T08:31:49;102833.44;;;0.00;100.00
36092;BME280;22147;52.388;13.390;2023-01-25T08:34:19;102835.44;;;-0.22;100.00
36092;BME280;22147;52.388;13.390;2023-01-25T08:36:49;102829.38;;;-0.17;100.00
36092;BME280;22147;52.388;13.390;2023-01-25T08:39:20;102828.56;;;-0.11;100.00
36092;BME280;22147;52.388;13.390;2023-01-25T08:41:50;102829.19;;;-0.03;100.00
36092;BME280;22147;52.388;13.390;2023-01-25T08:44:20;102837.16;;;-0.21;100.00
36092;BME280;22147;52.388;13.390;2023-01-25T08:46:52;102833.50;;;-0.35;100.00
36092;BME280;22147;52.388;13.390;2023-01-25T08:49:20;102827.84;;;-0.40;100.00
36092;BME280;22147;52.388;13.390;2023-01-25T08:51:48;102829.44;;;-0.52;100.00
36092;BME280;22147;52.388;13.390;2023-01-25T08:54:17;102828.00;;;-0.48;100.00
36092;BME280;22147;52.388;13.390;2023-01-25T08:56:45;102832.78;;;-0.57;100.00
36092;BME280;22147;52.388;13.390;2023-01-25T08:59:14;102829.25;;;-0.51;100.00
36092;BME280;22147;52.388;13.390;2023-01-25T09:01:42;102832.38;;;-0.54;100.00
36092;BME280;22147;52.388;13.390;2023-01-25T09:04:11;102830.22;;;-0.65;100.00
36092;BME280;22147;52.388;13.390;2023-01-25T09:06:39;102832.38;;;-0.54;100.00
36092;BME280;22147;52.388;13.390;2023-01-25T09:09:08;102829.53;;;-0.32;100.00
36092;BME280;22147;52.388;13.390;2023-01-25T09:11:36;102831.41;;;-0.33;100.00
36092;BME280;22147;52.388;13.390;2023-01-25T09:14:06;102829.09;;;-0.36;100.00
36092;BME280;22147;52.388;13.390;2023-01-25T09:16:35;102822.38;;;-0.40;100.00
36092;BME280;22147;52.388;13.390;2023-01-25T09:19:04;102818.75;;;-0.47;100.00
36092;BME280;22147;52.388;13.390;2023-01-25T09:21:33;102816.84;;;-0.47;100.00
36092;BME280;22147;52.388;13.390;2023-01-25T09:24:04;102826.94;;;-0.47;100.00
36092;BME280;22147;52.388;13.390;2023-01-25T09:26:38;102829.91;;;-0.42;100.00
36092;BME280;22147;52.388;13.390;2023-01-25T09:29:10;102821.28;;;-0.46;100.00
36092;BME280;22147;52.388;13.390;2023-01-25T09:31:40;102819.81;;;-0.48;100.00
36092;BME280;22147;52.388;13.390;2023-01-25T09:34:14;102817.91;;;-0.48;100.00
36092;BME280;22147;52.388;13.390;2023-01-25T09:36:44;102815.47;;;-0.36;100.00
36092;BME280;22147;52.388;13.390;2023-01-25T09:39:14;102814.84;;;-0.25;100.00
36092;BME280;22147;52.388;13.390;2023-01-25T09:42:00;102803.94;;;-0.25;100.00
36092;BME280;22147;52.388;13.390;2023-01-25T09:48:14;102792.41;;;-0.13;100.00
36092;BME280;22147;52.388;13.390;2023-01-25T09:51:32;102796.34;;;-0.36;100.00
36092;BME280;22147;52.388;13.390;2023-01-25T09:54:28;102795.91;;;-0.39;100.00
36092;BME280;22147;52.388;13.390;2023-01-25T09:57:21;102797.78;;;-0.40;100.00
36092;BME280;22147;52.388;13.390;2023-01-25T10:00:05;102798.66;;;-0.33;100.00
36092;BME280;22147;52.388;13.390;2023-01-25T10:05:59;102798.44;;;-0.38;100.00
36092;BME280;22147;52.388;13.390;2023-01-25T10:08:54;102791.28;;;-0.32;100.00
36092;BME280;22147;52.388;13.390;2023-01-25T10:11:33;102796.97;;;-0.34;100.00
36092;BME280;22147;52.388;13.390;2023-01-25T10:14:00;102786.91;;;-0.33;100.00
36092;BME280;22147;52.388;13.390;2023-01-25T10:19:58;102770.97;;;-0.16;100.00
36092;BME280;22147;52.388;13.390;2023-01-25T10:26:27;102770.25;;;-0.45;100.00
36092;BME280;22147;52.388;13.390;2023-01-25T10:29:19;102765.25;;;-0.35;100.00
36092;BME280;22147;52.388;13.390;2023-01-25T10:31:59;102763.16;;;-0.33;100.00
36092;BME280;22147;52.388;13.390;2023-01-25T10:34:49;102749.13;;;-0.03;100.00
36092;BME280;22147;52.388;13.390;2023-01-25T10:37:33;102742.16;;;-0.26;100.00
36092;BME280;22147;52.388;13.390;2023-01-25T10:40:23;102741.31;;;-0.26;100.00
36092;BME280;22147;52.388;13.390;2023-01-25T10:43:05;102736.28;;;-0.29;100.00
36092;BME280;22147;52.388;13.390;2023-01-25T10:45:40;102729.63;;;0.00;100.00
36092;BME280;22147;52.388;13.390;2023-01-25T10:48:29;102732.94;;;-0.05;100.00
36092;BME280;22147;52.388;13.390;2023-01-25T10:51:01;102721.38;;;-0.13;100.00
36092;BME280;22147;52.388;13.390;2023-01-25T10:53:37;102724.28;;;-0.28;100.00
36092;BME280;22147;52.388;13.390;2023-01-25T10:56:23;102723.44;;;-0.35;100.00
36092;BME280;22147;52.388;13.390;2023-01-25T10:59:24;102722.81;;;-0.31;100.00
36092;BME280;22147;52.388;13.390;2023-01-25T11:02:39;102714.63;;;-0.37;100.00
36092;BME280;22147;52.388;13.390;2023-01-25T11:05:27;102704.53;;;-0.37;100.00
36092;BME280;22147;52.388;13.390;2023-01-25T11:13:41;102699.53;;;-0.20;100.00
36092;BME280;22147;52.388;13.390;2023-01-25T11:16:37;102693.66;;;-0.04;100.00
36092;BME280;22147;52.388;13.390;2023-01-25T11:22:22;102678.94;;;-0.36;100.00
36092;BME280;22147;52.388;13.390;2023-01-25T11:24:53;102687.34;;;-0.17;100.00
36092;BME280;22147;52.388;13.390;2023-01-25T11:27:26;102669.06;;;0.03;100.00
36092;BME280;22147;52.388;13.390;2023-01-25T11:30:16;102653.28;;;-0.22;100.00
36092;BME280;22147;52.388;13.390;2023-01-25T11:32:45;102660.22;;;-0.32;100.00
36092;BME280;22147;52.388;13.390;2023-01-25T11:35:30;102652.84;;;-0.32;100.00
36092;BME280;22147;52.388;13.390;2023-01-25T11:38:14;102650.38;;;-0.27;100.00
36092;BME280;22147;52.388;13.390;2023-01-25T11:41:09;102646.16;;;-0.36;100.00
36092;BME280;22147;52.388;13.390;2023-01-25T11:50:35;102625.78;;;-0.40;100.00
36092;BME280;22147;52.388;13.390;2023-01-25T11:54:03;102629.16;;;-0.31;100.00
36092;BME280;22147;52.388;13.390;2023-01-25T12:06:05;102583.38;;;-0.36;100.00
36092;BME280;22147;52.388;13.390;2023-01-25T12:25:29;102541.13;;;-0.53;100.00
36092;BME280;22147;52.388;13.390;2023-01-25T12:28:28;102538.81;;;-0.30;100.00
36092;BME280;22147;52.388;13.390;2023-01-25T12:31:21;102525.78;;;-0.34;100.00
36092;BME280;22147;52.388;13.390;2023-01-25T12:34:18;102527.28;;;-0.52;100.00
36092;BME280;22147;52.388;13.390;2023-01-25T12:37:14;102524.13;;;-0.55;100.00
36092;BME280;22147;52.388;13.390;2023-01-25T12:40:19;102510.91;;;-0.52;100.00
36092;BME280;22147;52.388;13.390;2023-01-25T12:43:15;102516.78;;;-0.48;100.00
36092;BME280;22147;52.388;13.390;2023-01-25T12:45:58;102518.44;;;-0.47;100.00
36092;BME280;22147;52.388;13.390;2023-01-25T12:48:42;102510.06;;;-0.52;100.00
36092;BME280;22147;52.388;13.390;2023-01-25T12:51:20;102509.22;;;-0.59;100.00
36092;BME280;22147;52.388;13.390;2023-01-25T12:53:57;102497.69;;;-0.55;100.00
36092;BME280;22147;52.388;13.390;2023-01-25T12:59:56;102484.66;;;-0.46;100.00
36092;BME280;22147;52.388;13.390;2023-01-25T13:03:49;102488.22;;;-0.52;100.00
36092;BME280;22147;52.388;13.390;2023-01-25T13:06:51;102489.47;;;-0.62;100.00
36092;BME280;22147;52.388;13.390;2023-01-25T13:13:00;102487.59;;;-0.61;100.00
36092;BME280;22147;52.388;13.390;2023-01-25T13:15:45;102484.00;;;-0.68;100.00
36092;BME280;22147;52.388;13.390;2023-01-25T13:21:09;102484.66;;;-0.66;100.00
36092;BME280;22147;52.388;13.390;2023-01-25T13:27:32;102465.94;;;-0.49;100.00
36092;BME280;22147;52.388;13.390;2023-01-25T13:30:25;102458.59;;;-0.55;100.00
36092;BME280;22147;52.388;13.390;2023-01-25T13:33:05;102456.09;;;-0.70;100.00
36092;BME280;22147;52.388;13.390;2023-01-25T13:35:41;102457.34;;;-0.59;100.00
36092;BME280;22147;52.388;13.390;2023-01-25T13:41:12;102447.06;;;-0.64;100.00
36092;BME280;22147;52.388;13.390;2023-01-25T13:43:54;102442.63;;;-0.45;100.00
36092;BME280;22147;52.388;13.390;2023-01-25T13:46:43;102442.44;;;-0.50;100.00
36092;BME280;22147;52.388;13.390;2023-01-25T13:49:24;102436.16;;;-0.57;100.00
36092;BME280;22147;52.388;13.390;2023-01-25T13:51:58;102445.41;;;-0.65;100.00
36092;BME280;22147;52.388;13.390;2023-01-25T13:54:28;102438.06;;;-0.71;100.00
36092;BME280;22147;52.388;13.390;2023-01-25T13:57:12;102434.06;;;-0.69;100.00
36092;BME280;22147;52.388;13.390;2023-01-25T13:59:44;102422.75;;;-0.66;100.00
36092;BME280;22147;52.388;13.390;2023-01-25T14:02:22;102421.88;;;-0.73;100.00
36092;BME280;22147;52.388;13.390;2023-01-25T14:04:56;102420.44;;;-0.75;100.00
36092;BME280;22147;52.388;13.390;2023-01-25T14:07:34;102420.84;;;-0.65;100.00
36092;BME280;22147;52.388;13.390;2023-01-25T14:10:19;102419.34;;;-0.54;100.00
36092;BME280;22147;52.388;13.390;2023-01-25T14:12:58;102412.81;;;-0.47;100.00
36092;BME280;22147;52.388;13.390;2023-01-25T14:15:31;102411.38;;;-0.63;100.00
36092;BME280;22147;52.388;13.390;2023-01-25T14:18:19;102403.63;;;-0.72;100.00
36092;BME280;22147;52.388;13.390;2023-01-25T14:20:51;102396.91;;;-0.76;100.00
36092;BME280;22147;52.388;13.390;2023-01-25T14:23:23;102397.34;;;-0.79;100.00
36092;BME280;22147;52.388;13.390;2023-01-25T14:25:58;102392.09;;;-0.81;100.00
36092;BME280;22147;52.388;13.390;2023-01-25T14:28:29;102394.00;;;-0.88;100.00
36092;BME280;22147;52.388;13.390;2023-01-25T14:31:00;102389.75;;;-0.64;100.00